Deatsville, Alabama
Current Conditions -  °F | °C
As of 12:55 AM on Sunday 21 Dec 2014 (Local Time) from K1A9 Reporting Station
Overcast Overcast  
Wind Chill: 49°   Ceiling: 3600
Heat Index: 49°   Visibility: 10mi
Dew Point: 46°   Wind: 0mph
Humidity: 89%   Direction: NA
Pressure: 30.16"   Gusts: NA
Location:  32.61°N, 86.4°W
Report Text: K1A9 210655Z AUTO 00000KT 10SM OVC036 10/08 A3016 RMK AO2 T00950077
Loading
Personal Weather Stations






























Interactive Weather Map New forecast layout! Learn more

10-Day Weather Forecast

Advertisements
Track Severe Weather on mobile